createdAt,value
2022-12-25T00:01:23.663Z,98.92
2022-12-25T00:03:51.502Z,99.14
2022-12-25T00:06:18.972Z,99.81
2022-12-25T00:08:46.078Z,99.29
2022-12-25T00:11:16.058Z,99.26
2022-12-25T00:13:43.383Z,98.49
2022-12-25T00:16:15.133Z,98.49
2022-12-25T00:18:43.783Z,97.52
2022-12-25T00:21:11.421Z,97.14
2022-12-25T00:23:38.550Z,96.43
2022-12-25T00:26:07.657Z,95.36
2022-12-25T00:28:36.130Z,94.59
2022-12-25T00:31:08.482Z,94.08
2022-12-25T00:33:37.250Z,95.27
2022-12-25T00:36:06.378Z,96.16
2022-12-25T00:38:35.451Z,95.68
2022-12-25T00:41:11.610Z,95.75
2022-12-25T00:43:39.701Z,96.19
2022-12-25T00:46:07.699Z,95.58
2022-12-25T00:48:35.778Z,95.69
2022-12-25T00:51:05.803Z,96.74
2022-12-25T00:53:33.349Z,96.74
2022-12-25T00:56:05.281Z,97.64
2022-12-25T00:58:33.897Z,97.88
2022-12-25T01:01:01.229Z,96.27
2022-12-25T01:03:28.427Z,95.61
2022-12-25T01:06:00.914Z,94.47
2022-12-25T01:08:30.045Z,94.35
2022-12-25T01:10:59.343Z,94.25
2022-12-25T01:13:27.910Z,93.67
2022-12-25T01:15:55.099Z,93.88
2022-12-25T01:18:23.570Z,94.13
2022-12-25T01:20:50.851Z,95.92
2022-12-25T01:23:18.009Z,95.77
2022-12-25T01:25:45.969Z,96.34
2022-12-25T01:28:13.421Z,96.85
2022-12-25T01:30:40.636Z,98.10
2022-12-25T01:33:08.106Z,99.09
2022-12-25T01:35:35.260Z,98.98
2022-12-25T01:38:02.398Z,99.73
2022-12-25T01:40:29.825Z,99.69
2022-12-25T01:42:58.276Z,100.00
2022-12-25T01:45:41.010Z,100.00
2022-12-25T01:48:13.491Z,100.00
2022-12-25T01:50:44.667Z,100.00
2022-12-25T01:53:12.229Z,100.00
2022-12-25T01:55:40.315Z,100.00
2022-12-25T01:58:07.566Z,99.63
2022-12-25T02:00:35.035Z,99.53
2022-12-25T02:03:02.497Z,98.28
2022-12-25T02:05:32.196Z,98.05
2022-12-25T02:08:02.483Z,98.06
2022-12-25T02:10:30.061Z,97.71
2022-12-25T02:12:57.264Z,97.34
2022-12-25T02:15:30.177Z,96.92
2022-12-25T02:18:22.356Z,96.43
2022-12-25T02:21:08.376Z,96.18
2022-12-25T02:23:45.367Z,96.41
2022-12-25T02:26:24.548Z,96.41
2022-12-25T02:29:17.396Z,96.50
2022-12-25T02:31:48.737Z,96.93
2022-12-25T02:34:22.044Z,96.94
2022-12-25T02:36:58.149Z,97.39
2022-12-25T02:39:46.701Z,97.44
2022-12-25T02:42:19.597Z,97.53
2022-12-25T02:45:08.249Z,97.43
2022-12-25T02:47:54.952Z,98.46
2022-12-25T02:50:41.717Z,98.45
2022-12-25T02:53:27.939Z,98.72
2022-12-25T02:56:14.646Z,99.19
2022-12-25T02:59:01.426Z,98.13
2022-12-25T03:01:48.546Z,97.49
2022-12-25T03:04:37.552Z,97.46
2022-12-25T03:07:15.445Z,98.09
2022-12-25T03:10:06.374Z,98.15
2022-12-25T03:12:56.786Z,97.72
2022-12-25T03:15:42.516Z,97.70
2022-12-25T03:18:15.491Z,97.74
2022-12-25T03:21:01.363Z,97.98
2022-12-25T03:23:50.311Z,98.01
2022-12-25T03:26:36.715Z,97.90
2022-12-25T03:29:04.176Z,98.08
2022-12-25T03:31:37.049Z,98.25
2022-12-25T03:34:48.095Z,98.29
2022-12-25T03:37:30.035Z,98.25
2022-12-25T03:40:26.747Z,98.32
2022-12-25T03:43:17.142Z,98.20
2022-12-25T03:46:08.700Z,98.42
2022-12-25T03:48:59.602Z,98.08
2022-12-25T03:51:49.786Z,98.57
2022-12-25T03:54:38.220Z,98.89
2022-12-25T03:57:24.675Z,99.38
2022-12-25T04:00:10.576Z,99.33
2022-12-25T04:02:56.876Z,99.51
2022-12-25T04:05:42.765Z,99.20
2022-12-25T04:08:28.783Z,99.27
2022-12-25T04:11:14.282Z,99.39
2022-12-25T04:14:00.282Z,99.23
2022-12-25T04:16:45.728Z,99.18
2022-12-25T04:19:31.656Z,98.91
2022-12-25T04:22:17.090Z,98.67
2022-12-25T04:25:03.016Z,98.38
2022-12-25T04:27:49.536Z,98.04
2022-12-25T04:30:35.572Z,98.04
2022-12-25T04:33:21.244Z,97.91
2022-12-25T04:36:07.749Z,98.16
2022-12-25T04:38:35.429Z,98.40
2022-12-25T04:41:03.092Z,98.22
2022-12-25T04:43:30.470Z,98.22
2022-12-25T04:45:59.584Z,98.54
2022-12-25T04:48:27.733Z,98.54
2022-12-25T04:50:55.116Z,98.40
2022-12-25T04:53:22.687Z,98.00
2022-12-25T04:55:50.158Z,97.71
2022-12-25T04:58:17.303Z,97.23
2022-12-25T05:00:44.432Z,97.19
2022-12-25T05:03:11.983Z,96.87
2022-12-25T05:05:40.623Z,96.19
2022-12-25T05:08:07.864Z,96.12
2022-12-25T05:10:35.323Z,95.87
2022-12-25T05:13:02.441Z,95.93
2022-12-25T05:15:29.527Z,95.35
2022-12-25T05:17:56.981Z,94.40
2022-12-25T05:20:24.238Z,94.39
2022-12-25T05:22:51.308Z,94.89
2022-12-25T05:25:18.641Z,94.36
2022-12-25T05:27:50.311Z,93.90
2022-12-25T05:30:21.300Z,93.16
2022-12-25T05:32:48.684Z,93.25
2022-12-25T05:35:15.891Z,92.79
2022-12-25T05:37:43.330Z,92.76
2022-12-25T05:40:11.006Z,90.63
2022-12-25T05:42:38.142Z,90.13
2022-12-25T05:45:06.157Z,91.07
2022-12-25T05:47:33.306Z,93.70
2022-12-25T05:50:00.421Z,91.90
2022-12-25T05:52:32.028Z,92.30
2022-12-25T05:54:59.931Z,92.72
2022-12-25T05:57:31.536Z,92.55
2022-12-25T05:59:59.066Z,94.43
2022-12-25T06:02:26.567Z,93.58
2022-12-25T06:04:54.105Z,94.90
2022-12-25T06:07:21.356Z,96.53
2022-12-25T06:09:48.678Z,95.59
2022-12-25T06:12:16.163Z,95.43
2022-12-25T06:14:43.314Z,95.62
2022-12-25T06:17:10.594Z,96.63
2022-12-25T06:19:38.159Z,97.23
2022-12-25T06:22:05.312Z,97.28
2022-12-25T06:24:32.565Z,97.26
2022-12-25T06:27:00.031Z,98.10
2022-12-25T06:29:27.142Z,97.42
2022-12-25T06:31:57.282Z,98.00
2022-12-25T06:34:24.920Z,98.95
2022-12-25T06:36:52.088Z,99.01
2022-12-25T06:39:19.472Z,99.32
2022-12-25T06:41:47.695Z,98.11
2022-12-25T06:44:14.764Z,98.19
2022-12-25T06:46:41.956Z,97.19
2022-12-25T06:49:10.083Z,97.25
2022-12-25T06:51:37.259Z,96.52
2022-12-25T06:54:04.678Z,97.04
2022-12-25T06:56:32.850Z,96.22
2022-12-25T06:59:10.081Z,96.55
2022-12-25T07:01:56.892Z,95.19
2022-12-25T07:04:35.631Z,95.02
2022-12-25T07:07:08.431Z,96.12
2022-12-25T07:09:36.386Z,96.29
2022-12-25T07:12:24.298Z,96.77
2022-12-25T07:14:54.112Z,96.68
2022-12-25T07:17:22.295Z,96.10
2022-12-25T07:19:49.423Z,96.05
2022-12-25T07:22:17.020Z,96.67
2022-12-25T07:24:44.408Z,96.69
2022-12-25T07:27:11.508Z,97.65
2022-12-25T07:29:38.631Z,98.42
2022-12-25T07:32:06.159Z,97.38
2022-12-25T07:34:33.417Z,98.24
2022-12-25T07:37:00.507Z,99.47
2022-12-25T07:39:27.993Z,98.28
2022-12-25T07:41:55.123Z,97.37
2022-12-25T07:44:22.233Z,97.78
2022-12-25T07:46:49.566Z,97.03
2022-12-25T07:49:16.628Z,97.22
2022-12-25T07:51:43.712Z,96.45
2022-12-25T07:54:11.071Z,97.17
2022-12-25T07:56:38.200Z,96.91
2022-12-25T07:59:05.263Z,97.59
2022-12-25T08:01:32.763Z,99.14
2022-12-25T08:04:01.865Z,99.28
2022-12-25T08:06:34.564Z,98.61
2022-12-25T08:09:07.627Z,98.23
2022-12-25T08:11:34.855Z,96.03
2022-12-25T08:14:02.337Z,94.16
2022-12-25T08:16:29.464Z,92.53
2022-12-25T08:18:56.533Z,92.10
2022-12-25T08:21:23.922Z,91.17
2022-12-25T08:23:51.086Z,89.66
2022-12-25T08:26:23.709Z,89.59
2022-12-25T08:28:51.380Z,87.63
2022-12-25T08:31:26.350Z,84.79
2022-12-25T08:33:55.543Z,85.10
2022-12-25T08:36:23.015Z,86.27
2022-12-25T08:38:50.284Z,87.16
2022-12-25T08:41:18.118Z,87.41
2022-12-25T08:43:46.775Z,86.63
2022-12-25T08:46:14.212Z,84.42
2022-12-25T08:48:43.591Z,83.93
2022-12-25T08:51:17.128Z,83.62
2022-12-25T08:53:45.703Z,84.02
2022-12-25T08:56:13.360Z,83.54
2022-12-25T08:58:40.729Z,83.87
2022-12-25T09:01:08.261Z,84.59
2022-12-25T09:03:35.708Z,83.56
2022-12-25T09:06:04.716Z,83.93
2022-12-25T09:08:32.389Z,83.80
2022-12-25T09:11:04.326Z,84.02
2022-12-25T09:13:31.678Z,83.50
2022-12-25T09:15:58.854Z,83.53
2022-12-25T09:18:26.351Z,83.73
2022-12-25T09:21:01.185Z,84.32
2022-12-25T09:23:28.734Z,84.44
2022-12-25T09:25:59.084Z,84.15
2022-12-25T09:28:26.256Z,84.21
2022-12-25T09:30:53.690Z,84.00
2022-12-25T09:33:21.814Z,83.23
2022-12-25T09:35:56.599Z,82.27
2022-12-25T09:38:24.574Z,81.87
2022-12-25T09:41:21.092Z,80.35
2022-12-25T09:43:56.568Z,78.63
2022-12-25T09:46:30.196Z,78.73
2022-12-25T09:49:13.199Z,78.91
2022-12-25T09:51:41.118Z,77.07
2022-12-25T09:54:19.984Z,77.22
2022-12-25T09:56:48.192Z,76.64
2022-12-25T09:59:25.499Z,75.04
2022-12-25T10:02:07.831Z,75.11
2022-12-25T10:05:09.770Z,74.98
2022-12-25T10:08:02.541Z,75.78
2022-12-25T10:10:35.676Z,76.03
2022-12-25T10:13:07.800Z,77.28
2022-12-25T10:15:48.030Z,76.40
2022-12-25T10:18:31.184Z,76.14
2022-12-25T10:21:00.943Z,75.33
2022-12-25T10:23:33.078Z,75.70
2022-12-25T10:26:00.739Z,75.23
2022-12-25T10:28:38.856Z,75.41
2022-12-25T10:31:21.122Z,75.01
2022-12-25T10:33:52.867Z,75.67
2022-12-25T10:36:30.621Z,75.57
2022-12-25T10:38:58.039Z,76.62
2022-12-25T10:41:35.560Z,76.43
2022-12-25T10:44:21.753Z,76.59
2022-12-25T10:46:54.712Z,76.66
2022-12-25T10:49:24.122Z,74.96
2022-12-25T10:51:52.121Z,74.43
2022-12-25T10:54:35.174Z,74.09
2022-12-25T10:57:04.108Z,75.53
2022-12-25T10:59:41.948Z,73.74
2022-12-25T11:02:24.166Z,72.27
2022-12-25T11:04:58.140Z,71.95
2022-12-25T11:07:25.624Z,71.06
2022-12-25T11:09:59.299Z,71.42
2022-12-25T11:12:36.688Z,71.92
2022-12-25T11:15:26.359Z,69.95
2022-12-25T11:17:53.792Z,70.14
2022-12-25T11:20:21.768Z,68.55
2022-12-25T11:22:50.095Z,69.04
2022-12-25T11:25:26.231Z,71.41
2022-12-25T11:28:01.587Z,71.27
2022-12-25T11:30:30.280Z,73.22
2022-12-25T11:33:10.878Z,74.56
2022-12-25T11:35:52.898Z,73.45
2022-12-25T11:38:20.064Z,72.10
2022-12-25T11:40:52.721Z,73.35
2022-12-25T11:43:42.180Z,74.23
2022-12-25T11:46:32.943Z,73.39
2022-12-25T11:49:01.770Z,74.03
2022-12-25T11:51:33.764Z,74.66
2022-12-25T11:54:07.981Z,74.93
2022-12-25T11:56:36.985Z,74.63
2022-12-25T11:59:18.775Z,74.07
2022-12-25T12:01:52.005Z,75.18
2022-12-25T12:04:30.867Z,76.56
2022-12-25T12:07:05.315Z,76.86
2022-12-25T12:09:56.694Z,76.95
2022-12-25T12:12:38.195Z,76.89
2022-12-25T12:15:40.121Z,76.33
2022-12-25T12:18:22.117Z,75.96
2022-12-25T12:21:09.973Z,75.54
2022-12-25T12:24:06.573Z,75.70
2022-12-25T12:26:38.007Z,75.39
2022-12-25T12:29:07.903Z,75.80
2022-12-25T12:31:41.785Z,76.43
2022-12-25T12:34:27.869Z,76.81
2022-12-25T12:37:19.997Z,77.38
2022-12-25T12:39:54.370Z,77.89
2022-12-25T12:42:30.752Z,78.32
2022-12-25T12:45:09.819Z,78.46
2022-12-25T12:47:48.266Z,78.45
2022-12-25T12:50:30.638Z,77.97
2022-12-25T12:52:58.561Z,77.05
2022-12-25T12:55:34.140Z,77.86
2022-12-25T12:58:06.065Z,77.48
2022-12-25T13:00:40.134Z,77.62
2022-12-25T13:03:10.204Z,79.24
2022-12-25T13:05:46.087Z,78.88
2022-12-25T13:08:25.683Z,79.26
2022-12-25T13:11:24.365Z,78.87
2022-12-25T13:13:54.246Z,78.87
2022-12-25T13:16:24.446Z,78.19
2022-12-25T13:18:52.937Z,78.95
2022-12-25T13:21:28.481Z,79.70
2022-12-25T13:24:04.829Z,80.78
2022-12-25T13:26:32.013Z,80.09
2022-12-25T13:28:59.538Z,81.26
2022-12-25T13:31:28.734Z,82.64
2022-12-25T13:34:03.161Z,82.82
2022-12-25T13:36:35.866Z,82.63
2022-12-25T13:39:03.784Z,82.85
2022-12-25T13:41:55.423Z,84.20
2022-12-25T13:44:25.189Z,84.03
2022-12-25T13:46:52.884Z,84.46
2022-12-25T13:49:22.481Z,84.14
2022-12-25T13:51:50.425Z,83.83
2022-12-25T13:54:18.699Z,83.33
2022-12-25T13:56:51.126Z,83.30
2022-12-25T13:59:21.334Z,83.14
2022-12-25T14:01:49.903Z,82.79
2022-12-25T14:04:20.453Z,82.56
2022-12-25T14:06:51.673Z,82.61
2022-12-25T14:09:19.558Z,83.73
2022-12-25T14:11:50.519Z,84.70
2022-12-25T14:14:21.551Z,85.52
2022-12-25T14:16:50.356Z,86.38
2022-12-25T14:19:30.617Z,87.16
2022-12-25T14:21:58.055Z,88.15
2022-12-25T14:24:27.286Z,88.53
2022-12-25T14:27:00.348Z,89.06
2022-12-25T14:29:32.697Z,89.66
2022-12-25T14:32:04.056Z,89.79
2022-12-25T14:34:32.389Z,90.58
2022-12-25T14:37:00.686Z,90.82
2022-12-25T14:39:35.296Z,90.79
2022-12-25T14:42:22.258Z,91.29
2022-12-25T14:45:20.834Z,91.52
2022-12-25T14:47:56.309Z,91.00
2022-12-25T14:50:30.620Z,92.18
2022-12-25T14:52:59.083Z,92.44
2022-12-25T14:55:28.428Z,92.72
2022-12-25T14:58:06.242Z,93.61
2022-12-25T15:00:38.207Z,93.68
2022-12-25T15:03:18.640Z,93.69
2022-12-25T15:05:46.104Z,94.32
2022-12-25T15:08:23.268Z,94.25
2022-12-25T15:11:00.999Z,94.07
2022-12-25T15:13:30.320Z,93.99
2022-12-25T15:16:12.309Z,94.29
2022-12-25T15:18:44.239Z,95.00
2022-12-25T15:21:23.468Z,95.22
2022-12-25T15:23:50.642Z,94.94
2022-12-25T15:26:18.099Z,95.19
2022-12-25T15:28:45.303Z,95.59
2022-12-25T15:31:22.049Z,95.33
2022-12-25T15:33:55.611Z,95.71
2022-12-25T15:36:23.543Z,95.65
2022-12-25T15:38:51.671Z,96.12
2022-12-25T15:41:48.800Z,96.78
2022-12-25T15:44:16.791Z,96.59
2022-12-25T15:46:46.983Z,97.12
2022-12-25T15:49:15.150Z,97.62
2022-12-25T15:51:43.440Z,97.44
2022-12-25T15:54:11.055Z,97.58
2022-12-25T15:56:50.607Z,98.49
2022-12-25T15:59:19.540Z,97.88
2022-12-25T16:01:49.301Z,98.13
2022-12-25T16:04:16.980Z,97.84
2022-12-25T16:06:44.160Z,97.62
2022-12-25T16:09:11.892Z,97.61
2022-12-25T16:11:39.515Z,97.76
2022-12-25T16:14:07.084Z,98.47
2022-12-25T16:16:34.348Z,97.98
2022-12-25T16:19:01.971Z,98.06
2022-12-25T16:21:34.527Z,98.39
2022-12-25T16:24:01.976Z,98.47
2022-12-25T16:26:30.624Z,98.35
2022-12-25T16:29:01.166Z,98.35
2022-12-25T16:31:31.464Z,98.22
2022-12-25T16:33:58.828Z,98.04
2022-12-25T16:36:27.193Z,98.01
2022-12-25T16:38:54.802Z,97.57
2022-12-25T16:41:22.045Z,97.92
2022-12-25T16:43:51.840Z,97.86
2022-12-25T16:46:22.283Z,97.35
2022-12-25T16:48:49.556Z,98.51
2022-12-25T16:51:19.199Z,98.46
2022-12-25T16:53:47.196Z,98.68
2022-12-25T16:56:20.440Z,99.04
2022-12-25T16:58:48.180Z,99.08
2022-12-25T17:01:17.570Z,98.82
2022-12-25T17:03:45.457Z,99.21
2022-12-25T17:06:24.300Z,98.97
2022-12-25T17:08:53.058Z,99.06
2022-12-25T17:11:24.374Z,99.44
2022-12-25T17:13:51.658Z,99.09
2022-12-25T17:16:21.204Z,98.99
2022-12-25T17:18:49.637Z,98.83
2022-12-25T17:21:16.793Z,98.59
2022-12-25T17:23:45.092Z,98.41
2022-12-25T17:26:12.614Z,98.37
2022-12-25T17:28:39.796Z,98.72
2022-12-25T17:31:08.950Z,98.15
2022-12-25T17:33:37.879Z,98.58
2022-12-25T17:36:16.176Z,97.89
2022-12-25T17:38:44.540Z,97.56
2022-12-25T17:41:13.219Z,97.23
2022-12-25T17:43:42.091Z,97.76
2022-12-25T17:46:13.173Z,97.92
2022-12-25T17:48:43.389Z,98.17
2022-12-25T17:51:13.527Z,98.10
2022-12-25T17:53:42.839Z,98.42
2022-12-25T17:56:10.542Z,99.20
2022-12-25T17:58:38.351Z,98.80
2022-12-25T18:01:10.863Z,98.47
2022-12-25T18:03:38.707Z,98.82
2022-12-25T18:06:07.586Z,98.60
2022-12-25T18:08:39.272Z,98.25
2022-12-25T18:11:17.965Z,98.79
2022-12-25T18:13:48.414Z,98.47
2022-12-25T18:16:17.203Z,98.20
2022-12-25T18:18:51.508Z,98.24
2022-12-25T18:21:21.422Z,99.03
2022-12-25T18:23:48.886Z,99.15
2022-12-25T18:26:16.208Z,99.46
2022-12-25T18:28:44.022Z,98.60
2022-12-25T18:31:13.977Z,98.71
2022-12-25T18:33:41.757Z,98.58
2022-12-25T18:36:11.376Z,98.27
2022-12-25T18:38:41.696Z,97.90
2022-12-25T18:41:10.446Z,98.06
2022-12-25T18:43:54.413Z,98.97
2022-12-25T18:46:27.367Z,98.97
2022-12-25T18:48:56.015Z,99.68
2022-12-25T18:51:23.569Z,99.52
2022-12-25T18:53:51.288Z,99.26
2022-12-25T18:56:20.098Z,99.01
2022-12-25T18:58:48.070Z,99.04
2022-12-25T19:01:20.892Z,99.35
2022-12-25T19:03:49.370Z,99.45
2022-12-25T19:06:23.958Z,99.81
2022-12-25T19:08:51.273Z,99.25
2022-12-25T19:11:19.353Z,99.47
2022-12-25T19:13:46.584Z,99.13
2022-12-25T19:16:14.352Z,99.46
2022-12-25T19:18:44.438Z,99.15
2022-12-25T19:21:11.815Z,99.06
2022-12-25T19:23:39.352Z,99.16
2022-12-25T19:26:08.181Z,99.07
2022-12-25T19:28:36.200Z,99.38
2022-12-25T19:31:07.428Z,99.76
2022-12-25T19:33:35.908Z,100.00
2022-12-25T19:36:06.249Z,99.48
2022-12-25T19:38:33.430Z,99.08
2022-12-25T19:41:09.615Z,99.17
2022-12-25T19:43:38.946Z,98.39
2022-12-25T19:46:07.724Z,99.73
2022-12-25T19:48:35.030Z,99.08
2022-12-25T19:51:02.549Z,100.00
2022-12-25T19:53:30.076Z,98.78
2022-12-25T19:56:01.347Z,98.26
2022-12-25T19:58:29.736Z,97.75
2022-12-25T20:01:02.027Z,97.71
2022-12-25T20:03:29.570Z,97.75
2022-12-25T20:05:57.254Z,97.79
2022-12-25T20:08:24.857Z,98.52
2022-12-25T20:10:52.524Z,98.61
2022-12-25T20:13:20.193Z,98.00
2022-12-25T20:15:47.505Z,98.08
2022-12-25T20:18:17.832Z,98.29
2022-12-25T20:20:45.113Z,97.98
2022-12-25T20:23:12.297Z,98.31
2022-12-25T20:25:41.436Z,98.14
2022-12-25T20:28:09.303Z,98.21
2022-12-25T20:30:40.010Z,98.18
2022-12-25T20:33:07.555Z,97.66
2022-12-25T20:35:34.752Z,97.92
2022-12-25T20:38:02.026Z,98.04
2022-12-25T20:40:29.492Z,98.12
2022-12-25T20:42:56.752Z,97.35
2022-12-25T20:45:23.916Z,97.31
2022-12-25T20:47:51.392Z,97.14
2022-12-25T20:50:18.559Z,97.49
2022-12-25T20:52:45.720Z,97.82
2022-12-25T20:55:14.191Z,97.63
2022-12-25T20:57:41.355Z,97.63
2022-12-25T21:00:09.076Z,97.32
2022-12-25T21:02:37.960Z,96.75
2022-12-25T21:05:07.099Z,97.01
2022-12-25T21:07:34.281Z,97.42
2022-12-25T21:10:01.782Z,97.89
2022-12-25T21:12:28.932Z,97.46
2022-12-25T21:14:56.152Z,98.11
2022-12-25T21:17:23.639Z,97.87
2022-12-25T21:19:50.808Z,98.12
2022-12-25T21:22:17.988Z,98.30
2022-12-25T21:24:45.434Z,98.87
2022-12-25T21:27:12.575Z,98.89
2022-12-25T21:29:39.730Z,99.02
2022-12-25T21:32:25.774Z,98.42
2022-12-25T21:34:52.933Z,99.11
2022-12-25T21:37:20.472Z,99.05
2022-12-25T21:39:50.739Z,99.01
2022-12-25T21:42:17.874Z,97.62
2022-12-25T21:44:45.784Z,98.21
2022-12-25T21:47:12.962Z,97.83
2022-12-25T21:49:58.781Z,98.01
2022-12-25T21:52:26.229Z,97.83
2022-12-25T21:54:53.402Z,98.17
2022-12-25T21:57:20.587Z,98.11
2022-12-25T21:59:48.211Z,98.33
2022-12-25T22:02:15.379Z,98.21
2022-12-25T22:04:43.028Z,98.82
2022-12-25T22:07:18.846Z,99.02
2022-12-25T22:09:50.558Z,98.31
2022-12-25T22:12:37.772Z,98.74
2022-12-25T22:15:07.279Z,98.65
2022-12-25T22:17:55.104Z,97.67
2022-12-25T22:20:30.118Z,97.13
2022-12-25T22:22:58.152Z,98.22
2022-12-25T22:25:26.050Z,98.43
2022-12-25T22:27:53.611Z,98.25
2022-12-25T22:30:26.083Z,97.78
2022-12-25T22:32:53.837Z,97.83
2022-12-25T22:35:22.952Z,98.16
2022-12-25T22:37:50.234Z,98.56
2022-12-25T22:40:19.039Z,98.42
2022-12-25T22:42:46.292Z,98.11
2022-12-25T22:45:13.579Z,98.22
2022-12-25T22:47:41.577Z,98.89
2022-12-25T22:50:09.976Z,98.45
2022-12-25T22:52:37.523Z,97.92
2022-12-25T22:55:06.332Z,97.65
2022-12-25T22:57:33.517Z,97.74
2022-12-25T23:00:00.584Z,97.64
2022-12-25T23:02:28.279Z,97.94
2022-12-25T23:04:55.536Z,98.04
2022-12-25T23:07:22.628Z,97.89
2022-12-25T23:09:50.023Z,98.50
2022-12-25T23:12:35.972Z,97.80
2022-12-25T23:15:03.596Z,97.76
2022-12-25T23:17:49.137Z,98.38
2022-12-25T23:20:35.043Z,98.52
2022-12-25T23:23:21.055Z,98.68
2022-12-25T23:26:07.273Z,98.12
2022-12-25T23:28:57.801Z,98.25
2022-12-25T23:31:28.446Z,98.34
2022-12-25T23:33:55.547Z,98.44
2022-12-25T23:36:22.723Z,98.32
2022-12-25T23:38:50.308Z,98.23
2022-12-25T23:41:17.452Z,98.03
2022-12-25T23:43:44.524Z,98.76
2022-12-25T23:46:11.934Z,98.41
2022-12-25T23:48:39.091Z,97.74
2022-12-25T23:51:07.083Z,97.79
2022-12-25T23:53:34.779Z,97.58
2022-12-25T23:56:01.976Z,98.60
2022-12-25T23:58:29.554Z,98.51
